Weather at Old Mukah STOLport [CLOSED]

Public forecast

Using degrees Celsius for public forecast. Weather courtesy of forecast.io.

Closest aviation weather report (METAR) to Old Mukah STOLport

Closest report is Sibu Airport, 39.2 nm (72.5 km) S.

2024/05/21 07:00 (retrieved 50 minutes ago)

WBGS 210700Z 03004KT 9999 FEW015CB SCT018 31/26 Q1005

Closest aviation forecast (TAF) to Old Mukah STOLport

Closest forecast is Sibu Airport, 39.2 nm (72.5 km) S.

2024/05/21 06:00 (retrieved 2 hours ago)

TAF WBGS 210500Z 2106/2206 12005KT 9999 FEW018 TEMPO 2106/2110 30010KT 5000 TSRA FEW015CB SCT018